sensor_id;sensor_type;location;lat;lon;timestamp;P1;durP1;ratioP1;P2;durP2;ratioP2
19645;SDS011;9971;52.446;13.452;2023-02-26T00:03:30;1.32;;;1.10;;
19645;SDS011;9971;52.446;13.452;2023-02-26T00:08:33;1.45;;;1.07;;
19645;SDS011;9971;52.446;13.452;2023-02-26T00:13:35;2.20;;;1.03;;
19645;SDS011;9971;52.446;13.452;2023-02-26T00:18:37;2.15;;;1.20;;
19645;SDS011;9971;52.446;13.452;2023-02-26T00:23:40;1.47;;;1.15;;
19645;SDS011;9971;52.446;13.452;2023-02-26T00:28:42;1.25;;;0.90;;
19645;SDS011;9971;52.446;13.452;2023-02-26T00:33:45;2.02;;;1.32;;
19645;SDS011;9971;52.446;13.452;2023-02-26T00:38:51;1.72;;;0.90;;
19645;SDS011;9971;52.446;13.452;2023-02-26T00:43:51;1.13;;;1.00;;
19645;SDS011;9971;52.446;13.452;2023-02-26T00:48:54;1.50;;;0.85;;
19645;SDS011;9971;52.446;13.452;2023-02-26T00:54:03;1.50;;;1.27;;
19645;SDS011;9971;52.446;13.452;2023-02-26T00:59:16;2.93;;;0.90;;
19645;SDS011;9971;52.446;13.452;2023-02-26T01:04:19;1.20;;;1.00;;
19645;SDS011;9971;52.446;13.452;2023-02-26T01:09:25;2.77;;;0.90;;
19645;SDS011;9971;52.446;13.452;2023-02-26T01:14:26;1.75;;;0.98;;
19645;SDS011;9971;52.446;13.452;2023-02-26T01:19:30;1.17;;;1.00;;
19645;SDS011;9971;52.446;13.452;2023-02-26T01:24:30;1.77;;;1.00;;
19645;SDS011;9971;52.446;13.452;2023-02-26T01:29:32;1.83;;;1.10;;
19645;SDS011;9971;52.446;13.452;2023-02-26T01:34:41;1.85;;;1.07;;
19645;SDS011;9971;52.446;13.452;2023-02-26T01:39:50;1.95;;;1.00;;
19645;SDS011;9971;52.446;13.452;2023-02-26T01:44:59;1.13;;;0.60;;
19645;SDS011;9971;52.446;13.452;2023-02-26T01:50:08;1.77;;;0.70;;
19645;SDS011;9971;52.446;13.452;2023-02-26T01:55:19;1.40;;;0.68;;
19645;SDS011;9971;52.446;13.452;2023-02-26T02:00:20;3.40;;;1.02;;
19645;SDS011;9971;52.446;13.452;2023-02-26T02:05:26;1.17;;;0.60;;
19645;SDS011;9971;52.446;13.452;2023-02-26T02:10:29;1.82;;;0.68;;
19645;SDS011;9971;52.446;13.452;2023-02-26T02:15:40;0.60;;;0.60;;
19645;SDS011;9971;52.446;13.452;2023-02-26T02:26:13;1.65;;;0.82;;
19645;SDS011;9971;52.446;13.452;2023-02-26T02:31:19;1.35;;;0.80;;
19645;SDS011;9971;52.446;13.452;2023-02-26T02:41:41;0.70;;;0.70;;
19645;SDS011;9971;52.446;13.452;2023-02-26T02:46:42;1.03;;;0.83;;
19645;SDS011;9971;52.446;13.452;2023-02-26T02:51:45;1.23;;;0.90;;
19645;SDS011;9971;52.446;13.452;2023-02-26T02:56:46;2.90;;;0.90;;
19645;SDS011;9971;52.446;13.452;2023-02-26T03:01:49;1.10;;;1.00;;
19645;SDS011;9971;52.446;13.452;2023-02-26T03:06:51;1.10;;;1.00;;
19645;SDS011;9971;52.446;13.452;2023-02-26T03:11:53;2.03;;;0.70;;
19645;SDS011;9971;52.446;13.452;2023-02-26T03:17:06;2.08;;;1.12;;
19645;SDS011;9971;52.446;13.452;2023-02-26T03:22:12;2.33;;;0.90;;
19645;SDS011;9971;52.446;13.452;2023-02-26T03:28:28;1.22;;;0.72;;
19645;SDS011;9971;52.446;13.452;2023-02-26T03:32:42;2.30;;;0.70;;
19645;SDS011;9971;52.446;13.452;2023-02-26T03:37:45;1.07;;;0.77;;
19645;SDS011;9971;52.446;13.452;2023-02-26T03:42:47;1.80;;;0.90;;
19645;SDS011;9971;52.446;13.452;2023-02-26T03:47:49;2.33;;;0.80;;
19645;SDS011;9971;52.446;13.452;2023-02-26T03:52:50;1.83;;;0.77;;
19645;SDS011;9971;52.446;13.452;2023-02-26T03:57:52;1.60;;;0.70;;
19645;SDS011;9971;52.446;13.452;2023-02-26T04:02:57;1.47;;;0.70;;
19645;SDS011;9971;52.446;13.452;2023-02-26T04:07:57;1.12;;;0.90;;
19645;SDS011;9971;52.446;13.452;2023-02-26T04:12:59;1.23;;;0.90;;
19645;SDS011;9971;52.446;13.452;2023-02-26T04:18:01;2.47;;;0.70;;
19645;SDS011;9971;52.446;13.452;2023-02-26T04:23:03;3.25;;;1.00;;
19645;SDS011;9971;52.446;13.452;2023-02-26T04:28:05;1.22;;;0.72;;
19645;SDS011;9971;52.446;13.452;2023-02-26T04:33:07;1.95;;;0.80;;
19645;SDS011;9971;52.446;13.452;2023-02-26T04:38:10;1.85;;;0.57;;
19645;SDS011;9971;52.446;13.452;2023-02-26T04:43:12;1.60;;;0.88;;
19645;SDS011;9971;52.446;13.452;2023-02-26T04:48:15;0.78;;;0.60;;
19645;SDS011;9971;52.446;13.452;2023-02-26T04:53:17;2.80;;;1.00;;
19645;SDS011;9971;52.446;13.452;2023-02-26T04:58:19;4.25;;;1.20;;
19645;SDS011;9971;52.446;13.452;2023-02-26T05:03:22;1.50;;;0.93;;
19645;SDS011;9971;52.446;13.452;2023-02-26T05:08:24;2.00;;;1.27;;
19645;SDS011;9971;52.446;13.452;2023-02-26T05:13:27;2.87;;;1.27;;
19645;SDS011;9971;52.446;13.452;2023-02-26T05:18:29;1.67;;;0.55;;
19645;SDS011;9971;52.446;13.452;2023-02-26T05:23:31;1.13;;;0.80;;
19645;SDS011;9971;52.446;13.452;2023-02-26T05:28:33;1.90;;;0.82;;
19645;SDS011;9971;52.446;13.452;2023-02-26T05:33:36;1.12;;;0.68;;
19645;SDS011;9971;52.446;13.452;2023-02-26T05:38:38;2.40;;;0.77;;
19645;SDS011;9971;52.446;13.452;2023-02-26T05:43:40;1.62;;;0.70;;
19645;SDS011;9971;52.446;13.452;2023-02-26T05:48:43;5.15;;;0.98;;
19645;SDS011;9971;52.446;13.452;2023-02-26T05:53:45;1.17;;;0.90;;
19645;SDS011;9971;52.446;13.452;2023-02-26T05:58:48;1.70;;;1.00;;
19645;SDS011;9971;52.446;13.452;2023-02-26T06:03:50;1.25;;;0.82;;
19645;SDS011;9971;52.446;13.452;2023-02-26T06:08:54;0.83;;;0.60;;
19645;SDS011;9971;52.446;13.452;2023-02-26T06:13:56;1.35;;;0.98;;
19645;SDS011;9971;52.446;13.452;2023-02-26T06:18:58;1.83;;;0.70;;
19645;SDS011;9971;52.446;13.452;2023-02-26T06:24:01;2.12;;;0.93;;
19645;SDS011;9971;52.446;13.452;2023-02-26T06:29:03;0.62;;;0.55;;
19645;SDS011;9971;52.446;13.452;2023-02-26T06:34:05;0.90;;;0.60;;
19645;SDS011;9971;52.446;13.452;2023-02-26T06:39:08;1.42;;;0.93;;
19645;SDS011;9971;52.446;13.452;2023-02-26T06:44:10;2.60;;;0.88;;
19645;SDS011;9971;52.446;13.452;2023-02-26T06:49:13;2.22;;;0.72;;
19645;SDS011;9971;52.446;13.452;2023-02-26T06:54:15;1.32;;;0.70;;
19645;SDS011;9971;52.446;13.452;2023-02-26T06:59:18;1.20;;;0.75;;
19645;SDS011;9971;52.446;13.452;2023-02-26T07:04:20;0.80;;;0.65;;
19645;SDS011;9971;52.446;13.452;2023-02-26T07:09:23;1.25;;;0.80;;
19645;SDS011;9971;52.446;13.452;2023-02-26T07:14:25;1.60;;;0.80;;
19645;SDS011;9971;52.446;13.452;2023-02-26T07:19:28;1.02;;;0.82;;
19645;SDS011;9971;52.446;13.452;2023-02-26T07:24:30;0.90;;;0.60;;
19645;SDS011;9971;52.446;13.452;2023-02-26T07:29:32;1.12;;;0.70;;
19645;SDS011;9971;52.446;13.452;2023-02-26T07:34:35;1.67;;;0.97;;
19645;SDS011;9971;52.446;13.452;2023-02-26T07:39:37;1.00;;;0.95;;
19645;SDS011;9971;52.446;13.452;2023-02-26T07:44:39;0.93;;;0.80;;
19645;SDS011;9971;52.446;13.452;2023-02-26T07:49:42;1.30;;;0.72;;
19645;SDS011;9971;52.446;13.452;2023-02-26T07:54:44;2.75;;;0.90;;
19645;SDS011;9971;52.446;13.452;2023-02-26T07:59:47;0.50;;;0.50;;
19645;SDS011;9971;52.446;13.452;2023-02-26T08:04:49;1.42;;;0.98;;
19645;SDS011;9971;52.446;13.452;2023-02-26T08:09:52;1.77;;;0.80;;
19645;SDS011;9971;52.446;13.452;2023-02-26T08:14:54;0.85;;;0.72;;
19645;SDS011;9971;52.446;13.452;2023-02-26T08:19:57;1.25;;;0.88;;
19645;SDS011;9971;52.446;13.452;2023-02-26T08:24:59;1.12;;;0.95;;
19645;SDS011;9971;52.446;13.452;2023-02-26T08:30:02;1.27;;;0.60;;
19645;SDS011;9971;52.446;13.452;2023-02-26T08:35:04;1.80;;;0.80;;
19645;SDS011;9971;52.446;13.452;2023-02-26T08:40:07;0.82;;;0.72;;
19645;SDS011;9971;52.446;13.452;2023-02-26T08:45:09;1.52;;;0.98;;
19645;SDS011;9971;52.446;13.452;2023-02-26T08:50:11;1.90;;;1.00;;
19645;SDS011;9971;52.446;13.452;2023-02-26T08:55:14;1.35;;;0.68;;
19645;SDS011;9971;52.446;13.452;2023-02-26T09:00:16;0.82;;;0.60;;
19645;SDS011;9971;52.446;13.452;2023-02-26T09:05:19;1.62;;;0.60;;
19645;SDS011;9971;52.446;13.452;2023-02-26T09:10:21;1.07;;;0.83;;
19645;SDS011;9971;52.446;13.452;2023-02-26T09:15:24;0.87;;;0.70;;
19645;SDS011;9971;52.446;13.452;2023-02-26T09:20:26;1.05;;;0.93;;
19645;SDS011;9971;52.446;13.452;2023-02-26T09:25:29;3.23;;;1.10;;
19645;SDS011;9971;52.446;13.452;2023-02-26T09:30:31;0.60;;;0.60;;
19645;SDS011;9971;52.446;13.452;2023-02-26T09:35:34;1.27;;;0.73;;
19645;SDS011;9971;52.446;13.452;2023-02-26T09:40:46;1.15;;;0.75;;
19645;SDS011;9971;52.446;13.452;2023-02-26T09:45:48;0.87;;;0.70;;
19645;SDS011;9971;52.446;13.452;2023-02-26T09:50:52;1.03;;;0.70;;
19645;SDS011;9971;52.446;13.452;2023-02-26T09:55:54;1.67;;;0.80;;
19645;SDS011;9971;52.446;13.452;2023-02-26T10:06:17;1.70;;;0.60;;
19645;SDS011;9971;52.446;13.452;2023-02-26T10:11:22;1.03;;;0.70;;
19645;SDS011;9971;52.446;13.452;2023-02-26T10:16:32;0.80;;;0.53;;
19645;SDS011;9971;52.446;13.452;2023-02-26T10:21:35;0.43;;;0.40;;
19645;SDS011;9971;52.446;13.452;2023-02-26T10:26:42;0.63;;;0.63;;
19645;SDS011;9971;52.446;13.452;2023-02-26T10:31:54;1.37;;;0.90;;
19645;SDS011;9971;52.446;13.452;2023-02-26T10:36:57;0.65;;;0.40;;
19645;SDS011;9971;52.446;13.452;2023-02-26T10:41:59;0.73;;;0.60;;
19645;SDS011;9971;52.446;13.452;2023-02-26T10:47:05;0.60;;;0.60;;
19645;SDS011;9971;52.446;13.452;2023-02-26T10:52:16;1.27;;;0.60;;
19645;SDS011;9971;52.446;13.452;2023-02-26T10:57:25;1.70;;;0.80;;
19645;SDS011;9971;52.446;13.452;2023-02-26T11:02:30;1.37;;;0.82;;
19645;SDS011;9971;52.446;13.452;2023-02-26T11:07:35;1.07;;;0.90;;
19645;SDS011;9971;52.446;13.452;2023-02-26T11:12:35;0.63;;;0.60;;
19645;SDS011;9971;52.446;13.452;2023-02-26T11:17:38;0.65;;;0.50;;
19645;SDS011;9971;52.446;13.452;2023-02-26T11:22:42;1.40;;;0.68;;
19645;SDS011;9971;52.446;13.452;2023-02-26T11:27:42;0.87;;;0.67;;
19645;SDS011;9971;52.446;13.452;2023-02-26T11:32:44;1.07;;;0.40;;
19645;SDS011;9971;52.446;13.452;2023-02-26T11:37:47;0.83;;;0.50;;
19645;SDS011;9971;52.446;13.452;2023-02-26T11:42:50;0.80;;;0.80;;
19645;SDS011;9971;52.446;13.452;2023-02-26T11:47:59;1.42;;;0.72;;
19645;SDS011;9971;52.446;13.452;2023-02-26T11:53:05;0.60;;;0.60;;
19645;SDS011;9971;52.446;13.452;2023-02-26T11:58:14;0.50;;;0.50;;
19645;SDS011;9971;52.446;13.452;2023-02-26T12:03:14;0.80;;;0.60;;
19645;SDS011;9971;52.446;13.452;2023-02-26T12:08:15;0.60;;;0.40;;
19645;SDS011;9971;52.446;13.452;2023-02-26T12:13:20;0.37;;;0.30;;
19645;SDS011;9971;52.446;13.452;2023-02-26T12:18:32;0.42;;;0.30;;
19645;SDS011;9971;52.446;13.452;2023-02-26T12:23:37;0.57;;;0.40;;
19645;SDS011;9971;52.446;13.452;2023-02-26T12:34:08;0.53;;;0.53;;
19645;SDS011;9971;52.446;13.452;2023-02-26T12:39:46;0.33;;;0.27;;
19645;SDS011;9971;52.446;13.452;2023-02-26T12:44:55;0.43;;;0.17;;
19645;SDS011;9971;52.446;13.452;2023-02-26T12:50:18;0.40;;;0.40;;
19645;SDS011;9971;52.446;13.452;2023-02-26T12:55:22;0.40;;;0.40;;
19645;SDS011;9971;52.446;13.452;2023-02-26T13:00:27;0.88;;;0.50;;
19645;SDS011;9971;52.446;13.452;2023-02-26T13:05:41;0.53;;;0.53;;
19645;SDS011;9971;52.446;13.452;2023-02-26T13:10:49;0.60;;;0.60;;
19645;SDS011;9971;52.446;13.452;2023-02-26T13:21:11;0.90;;;0.50;;
19645;SDS011;9971;52.446;13.452;2023-02-26T13:26:11;0.42;;;0.35;;
19645;SDS011;9971;52.446;13.452;2023-02-26T13:31:32;0.50;;;0.50;;
19645;SDS011;9971;52.446;13.452;2023-02-26T13:36:33;0.62;;;0.40;;
19645;SDS011;9971;52.446;13.452;2023-02-26T13:41:39;0.50;;;0.40;;
19645;SDS011;9971;52.446;13.452;2023-02-26T13:47:51;1.77;;;0.77;;
19645;SDS011;9971;52.446;13.452;2023-02-26T13:51:58;0.67;;;0.50;;
19645;SDS011;9971;52.446;13.452;2023-02-26T13:57:07;0.70;;;0.40;;
19645;SDS011;9971;52.446;13.452;2023-02-26T14:12:45;0.40;;;0.33;;
19645;SDS011;9971;52.446;13.452;2023-02-26T14:17:48;0.60;;;0.60;;
19645;SDS011;9971;52.446;13.452;2023-02-26T14:22:51;1.13;;;0.70;;
19645;SDS011;9971;52.446;13.452;2023-02-26T14:28:17;1.40;;;0.65;;
19645;SDS011;9971;52.446;13.452;2023-02-26T14:38:20;0.63;;;0.60;;
19645;SDS011;9971;52.446;13.452;2023-02-26T14:43:23;5.60;;;5.10;;
19645;SDS011;9971;52.446;13.452;2023-02-26T14:48:23;1.37;;;1.30;;
19645;SDS011;9971;52.446;13.452;2023-02-26T14:53:35;3.27;;;3.07;;
19645;SDS011;9971;52.446;13.452;2023-02-26T15:04:20;3.30;;;3.10;;
19645;SDS011;9971;52.446;13.452;2023-02-26T15:10:00;2.67;;;2.47;;
19645;SDS011;9971;52.446;13.452;2023-02-26T15:20:42;1.57;;;1.47;;
19645;SDS011;9971;52.446;13.452;2023-02-26T15:25:41;0.90;;;0.90;;
19645;SDS011;9971;52.446;13.452;2023-02-26T15:30:42;1.27;;;1.20;;
19645;SDS011;9971;52.446;13.452;2023-02-26T15:35:47;0.87;;;0.87;;
19645;SDS011;9971;52.446;13.452;2023-02-26T15:40:47;0.67;;;0.67;;
19645;SDS011;9971;52.446;13.452;2023-02-26T15:45:50;1.23;;;0.90;;
19645;SDS011;9971;52.446;13.452;2023-02-26T15:50:52;0.90;;;0.90;;
19645;SDS011;9971;52.446;13.452;2023-02-26T15:55:53;1.07;;;0.90;;
19645;SDS011;9971;52.446;13.452;2023-02-26T16:00:55;1.10;;;0.70;;
19645;SDS011;9971;52.446;13.452;2023-02-26T16:05:57;0.50;;;0.50;;
19645;SDS011;9971;52.446;13.452;2023-02-26T16:10:59;1.40;;;0.80;;
19645;SDS011;9971;52.446;13.452;2023-02-26T16:16:02;2.70;;;2.50;;
19645;SDS011;9971;52.446;13.452;2023-02-26T16:21:05;4.37;;;3.97;;
19645;SDS011;9971;52.446;13.452;2023-02-26T16:26:07;2.23;;;2.03;;
19645;SDS011;9971;52.446;13.452;2023-02-26T16:31:10;1.07;;;0.97;;
19645;SDS011;9971;52.446;13.452;2023-02-26T16:36:11;1.17;;;0.83;;
19645;SDS011;9971;52.446;13.452;2023-02-26T16:41:12;1.50;;;1.00;;
19645;SDS011;9971;52.446;13.452;2023-02-26T16:46:18;1.65;;;1.25;;
19645;SDS011;9971;52.446;13.452;2023-02-26T16:51:19;1.45;;;1.05;;
19645;SDS011;9971;52.446;13.452;2023-02-26T16:56:22;1.30;;;1.20;;
19645;SDS011;9971;52.446;13.452;2023-02-26T17:01:22;2.87;;;2.23;;
19645;SDS011;9971;52.446;13.452;2023-02-26T17:06:25;4.33;;;3.37;;
19645;SDS011;9971;52.446;13.452;2023-02-26T17:11:27;1.40;;;1.30;;
19645;SDS011;9971;52.446;13.452;2023-02-26T17:16:29;0.80;;;0.80;;
19645;SDS011;9971;52.446;13.452;2023-02-26T17:21:32;0.70;;;0.70;;
19645;SDS011;9971;52.446;13.452;2023-02-26T17:26:34;0.97;;;0.83;;
19645;SDS011;9971;52.446;13.452;2023-02-26T17:31:36;0.68;;;0.68;;
19645;SDS011;9971;52.446;13.452;2023-02-26T17:36:39;5.58;;;5.08;;
19645;SDS011;9971;52.446;13.452;2023-02-26T17:41:42;3.72;;;3.35;;
19645;SDS011;9971;52.446;13.452;2023-02-26T17:46:43;4.53;;;4.13;;
19645;SDS011;9971;52.446;13.452;2023-02-26T17:51:45;4.65;;;3.67;;
19645;SDS011;9971;52.446;13.452;2023-02-26T17:56:48;11.83;;;9.70;;
19645;SDS011;9971;52.446;13.452;2023-02-26T18:01:51;10.93;;;10.13;;
19645;SDS011;9971;52.446;13.452;2023-02-26T18:06:53;3.40;;;3.20;;
19645;SDS011;9971;52.446;13.452;2023-02-26T18:11:55;2.07;;;1.97;;
19645;SDS011;9971;52.446;13.452;2023-02-26T18:16:58;1.62;;;1.40;;
19645;SDS011;9971;52.446;13.452;2023-02-26T18:22:00;2.50;;;2.30;;
19645;SDS011;9971;52.446;13.452;2023-02-26T18:27:03;3.35;;;3.05;;
19645;SDS011;9971;52.446;13.452;2023-02-26T18:32:05;7.30;;;6.70;;
19645;SDS011;9971;52.446;13.452;2023-02-26T18:37:10;3.93;;;3.63;;
19645;SDS011;9971;52.446;13.452;2023-02-26T18:42:16;12.23;;;11.03;;
19645;SDS011;9971;52.446;13.452;2023-02-26T18:47:20;12.40;;;11.20;;
19645;SDS011;9971;52.446;13.452;2023-02-26T18:52:22;7.80;;;7.10;;
19645;SDS011;9971;52.446;13.452;2023-02-26T18:57:24;3.50;;;3.22;;
19645;SDS011;9971;52.446;13.452;2023-02-26T19:02:26;2.00;;;1.85;;
19645;SDS011;9971;52.446;13.452;2023-02-26T19:07:29;3.22;;;2.92;;
19645;SDS011;9971;52.446;13.452;2023-02-26T19:12:31;4.30;;;4.00;;
19645;SDS011;9971;52.446;13.452;2023-02-26T19:17:34;2.05;;;1.95;;
19645;SDS011;9971;52.446;13.452;2023-02-26T19:22:36;1.50;;;1.35;;
19645;SDS011;9971;52.446;13.452;2023-02-26T19:27:38;1.30;;;1.20;;
19645;SDS011;9971;52.446;13.452;2023-02-26T19:32:41;1.60;;;1.50;;
19645;SDS011;9971;52.446;13.452;2023-02-26T19:37:43;1.32;;;1.22;;
19645;SDS011;9971;52.446;13.452;2023-02-26T19:42:46;1.77;;;1.67;;
19645;SDS011;9971;52.446;13.452;2023-02-26T19:47:48;2.17;;;1.50;;
19645;SDS011;9971;52.446;13.452;2023-02-26T19:52:51;2.80;;;2.60;;
19645;SDS011;9971;52.446;13.452;2023-02-26T19:57:53;3.50;;;3.27;;
19645;SDS011;9971;52.446;13.452;2023-02-26T20:02:55;3.90;;;3.70;;
19645;SDS011;9971;52.446;13.452;2023-02-26T20:07:58;3.10;;;2.90;;
19645;SDS011;9971;52.446;13.452;2023-02-26T20:13:00;2.25;;;2.15;;
19645;SDS011;9971;52.446;13.452;2023-02-26T20:18:02;1.40;;;1.30;;
19645;SDS011;9971;52.446;13.452;2023-02-26T20:23:05;1.57;;;1.42;;
19645;SDS011;9971;52.446;13.452;2023-02-26T20:28:07;2.22;;;1.70;;
19645;SDS011;9971;52.446;13.452;2023-02-26T20:33:10;1.82;;;1.70;;
19645;SDS011;9971;52.446;13.452;2023-02-26T20:38:12;3.50;;;2.17;;
19645;SDS011;9971;52.446;13.452;2023-02-26T20:43:14;2.62;;;1.70;;
19645;SDS011;9971;52.446;13.452;2023-02-26T20:48:16;2.57;;;2.03;;
19645;SDS011;9971;52.446;13.452;2023-02-26T20:53:19;1.92;;;1.70;;
19645;SDS011;9971;52.446;13.452;2023-02-26T20:58:20;2.93;;;2.00;;
19645;SDS011;9971;52.446;13.452;2023-02-26T21:03:22;1.72;;;1.32;;
19645;SDS011;9971;52.446;13.452;2023-02-26T21:08:24;2.63;;;1.80;;
19645;SDS011;9971;52.446;13.452;2023-02-26T21:13:27;2.75;;;1.87;;
19645;SDS011;9971;52.446;13.452;2023-02-26T21:18:29;2.55;;;1.65;;
19645;SDS011;9971;52.446;13.452;2023-02-26T21:23:32;3.08;;;1.80;;
19645;SDS011;9971;52.446;13.452;2023-02-26T21:28:34;2.40;;;1.90;;
19645;SDS011;9971;52.446;13.452;2023-02-26T21:33:37;2.10;;;1.77;;
19645;SDS011;9971;52.446;13.452;2023-02-26T21:38:39;2.58;;;1.90;;
19645;SDS011;9971;52.446;13.452;2023-02-26T21:43:42;3.47;;;2.08;;
19645;SDS011;9971;52.446;13.452;2023-02-26T21:48:44;3.43;;;2.23;;
19645;SDS011;9971;52.446;13.452;2023-02-26T21:53:46;3.65;;;3.08;;
19645;SDS011;9971;52.446;13.452;2023-02-26T21:58:49;4.87;;;3.20;;
19645;SDS011;9971;52.446;13.452;2023-02-26T22:03:52;3.45;;;2.60;;
19645;SDS011;9971;52.446;13.452;2023-02-26T22:08:55;4.60;;;2.83;;
19645;SDS011;9971;52.446;13.452;2023-02-26T22:13:58;3.83;;;2.90;;
19645;SDS011;9971;52.446;13.452;2023-02-26T22:19:00;3.90;;;3.42;;
19645;SDS011;9971;52.446;13.452;2023-02-26T22:24:03;4.47;;;3.17;;
19645;SDS011;9971;52.446;13.452;2023-02-26T22:29:05;4.10;;;2.25;;
19645;SDS011;9971;52.446;13.452;2023-02-26T22:34:07;2.52;;;2.30;;
19645;SDS011;9971;52.446;13.452;2023-02-26T22:39:10;3.22;;;2.33;;
19645;SDS011;9971;52.446;13.452;2023-02-26T22:44:12;3.50;;;2.40;;
19645;SDS011;9971;52.446;13.452;2023-02-26T22:49:14;2.62;;;2.00;;
19645;SDS011;9971;52.446;13.452;2023-02-26T22:54:17;2.72;;;2.10;;
19645;SDS011;9971;52.446;13.452;2023-02-26T22:59:19;2.30;;;2.10;;
19645;SDS011;9971;52.446;13.452;2023-02-26T23:04:21;3.55;;;2.72;;
19645;SDS011;9971;52.446;13.452;2023-02-26T23:09:24;4.10;;;2.92;;
19645;SDS011;9971;52.446;13.452;2023-02-26T23:14:26;3.60;;;2.60;;
19645;SDS011;9971;52.446;13.452;2023-02-26T23:19:29;4.70;;;2.62;;
19645;SDS011;9971;52.446;13.452;2023-02-26T23:24:31;2.73;;;2.20;;
19645;SDS011;9971;52.446;13.452;2023-02-26T23:29:33;3.27;;;2.10;;
19645;SDS011;9971;52.446;13.452;2023-02-26T23:34:35;2.00;;;1.80;;
19645;SDS011;9971;52.446;13.452;2023-02-26T23:39:38;1.92;;;1.77;;
19645;SDS011;9971;52.446;13.452;2023-02-26T23:44:40;2.27;;;2.05;;
19645;SDS011;9971;52.446;13.452;2023-02-26T23:49:42;1.82;;;1.70;;
19645;SDS011;9971;52.446;13.452;2023-02-26T23:54:45;2.20;;;1.65;;
19645;SDS011;9971;52.446;13.452;2023-02-26T23:59:47;1.57;;;1.37;;
